Time;durP1;ratioP1;P1;durP2;ratioP2;P2;SDS_P1;SDS_P2;PMS_P1;PMS_P2;Temp;Humidity;BMP_temperature;BMP_pressure;BME280_temperature;BME280_humidity;BME280_pressure;Samples;Min_cycle;Max_cycle;Signal;HPM_P1;HPM_P2
2022/11/05 00:10:25;;;;;;;16.10;6.60;;;10.90;76.30;;;;;;5025786;28;20291;-92
2022/11/05 00:18:25;;;;;;;19.03;7.13;;;10.80;76.40;;;;;;5017901;28;20271;-92
2022/11/05 00:20:52;;;;;;;11.47;5.77;;;10.80;76.30;;;;;;5011552;28;20220;-92
2022/11/05 00:26:10;;;;;;;24.67;7.83;;;10.70;76.50;;;;;;5013389;28;20336;-92
2022/11/05 00:28:43;;;;;;;13.10;5.70;;;10.70;76.70;;;;;;5009597;28;20303;-92
2022/11/05 00:31:12;;;;;;;17.43;7.17;;;10.70;76.80;;;;;;5010910;28;20633;-91
2022/11/05 00:33:41;;;;;;;21.17;7.77;;;10.70;76.60;;;;;;5007703;28;20264;-92
2022/11/05 00:36:11;;;;;;;17.63;6.97;;;10.60;76.70;;;;;;5011082;28;20203;-92
2022/11/05 00:38:43;;;;;;;16.37;6.43;;;10.60;76.90;;;;;;5011110;28;20242;-92
2022/11/05 00:41:19;;;;;;;23.33;7.23;;;10.60;77.90;;;;;;5010885;28;20317;-93
2022/11/05 00:46:32;;;;;;;14.03;5.67;;;10.50;77.00;;;;;;5016722;28;20283;-93
2022/11/05 00:51:46;;;;;;;16.33;6.63;;;10.50;77.40;;;;;;5010439;28;21399;-92
2022/11/05 00:54:13;;;;;;;22.63;7.73;;;10.50;77.20;;;;;;5007760;28;20224;-92
2022/11/05 00:56:44;;;;;;;17.00;6.30;;;10.50;77.20;;;;;;5012495;28;20705;-91
2022/11/05 00:59:11;;;;;;;18.53;6.73;;;10.40;77.40;;;;;;5008942;28;20205;-92
2022/11/05 01:01:38;;;;;;;15.80;5.97;;;10.40;77.10;;;;;;5013217;28;20731;-92
2022/11/05 01:04:08;;;;;;;19.50;7.10;;;10.40;77.10;;;;;;5014472;28;20207;-93
2022/11/05 01:06:36;;;;;;;20.07;6.17;;;10.40;77.20;;;;;;5023434;28;20198;-89
2022/11/05 01:09:05;;;;;;;13.40;5.10;;;10.30;77.20;;;;;;5018643;28;20197;-92
2022/11/05 01:11:34;;;;;;;20.67;6.50;;;10.30;77.30;;;;;;5016104;28;20222;-93
2022/11/05 01:14:07;;;;;;;18.37;6.93;;;10.30;77.20;;;;;;5013998;28;20209;-92
2022/11/05 01:16:40;;;;;;;13.93;5.80;;;10.30;78.00;;;;;;5009863;28;20220;-92
2022/11/05 01:19:11;;;;;;;18.40;6.80;;;10.30;78.00;;;;;;5008898;28;20940;-93
2022/11/05 01:21:41;;;;;;;15.63;6.00;;;10.20;78.30;;;;;;5013333;28;20217;-91
2022/11/05 01:24:11;;;;;;;21.73;8.03;;;10.20;78.10;;;;;;5007674;28;20273;-92
2022/11/05 01:26:39;;;;;;;17.73;5.90;;;10.10;78.40;;;;;;5008544;28;20285;-92
2022/11/05 01:29:12;;;;;;;22.30;6.90;;;10.10;78.20;;;;;;5005262;28;20216;-93
2022/11/05 01:31:40;;;;;;;17.63;6.03;;;10.10;78.80;;;;;;5013407;28;21086;-92
2022/11/05 01:34:08;;;;;;;18.77;6.50;;;10.10;78.70;;;;;;5010744;28;20208;-91
2022/11/05 01:36:36;;;;;;;17.20;6.53;;;10.10;78.80;;;;;;5010062;28;20301;-92
2022/11/05 01:39:04;;;;;;;17.27;6.57;;;10.10;78.90;;;;;;5010020;28;20342;-91
2022/11/05 01:41:34;;;;;;;17.67;6.33;;;10.10;79.40;;;;;;5007972;28;20205;-92
2022/11/05 01:44:02;;;;;;;15.53;5.47;;;10.10;79.60;;;;;;5015403;28;20207;-92
2022/11/05 01:46:37;;;;;;;18.90;6.70;;;10.10;79.60;;;;;;5013436;28;20234;-92
2022/11/05 01:49:15;;;;;;;18.63;6.40;;;10.10;79.90;;;;;;5009493;28;20255;-93
2022/11/05 01:51:44;;;;;;;22.27;7.40;;;10.10;80.00;;;;;;5018517;28;20318;-92
2022/11/05 01:54:17;;;;;;;16.37;5.90;;;10.00;79.60;;;;;;5009614;28;20234;-92
2022/11/05 01:56:52;;;;;;;19.50;6.23;;;10.10;80.00;;;;;;5013786;28;20316;-92
2022/11/05 01:59:24;;;;;;;16.70;6.43;;;10.10;80.20;;;;;;5014923;28;20708;-94
2022/11/05 02:01:57;;;;;;;16.47;5.83;;;10.10;80.20;;;;;;5010241;28;20309;-92
2022/11/05 02:04:55;;;;;;;13.90;5.43;;;10.10;80.80;;;;;;5008381;28;20201;-93
2022/11/05 02:07:26;;;;;;;28.30;8.27;;;10.10;81.10;;;;;;5009222;28;20241;-93
2022/11/05 02:10:01;;;;;;;18.27;6.33;;;10.10;81.70;;;;;;5009351;28;20289;-91
2022/11/05 02:12:31;;;;;;;13.77;5.80;;;10.10;81.30;;;;;;5012633;28;20204;-92
2022/11/05 02:14:58;;;;;;;19.03;7.00;;;10.10;81.10;;;;;;5012512;28;20209;-92
2022/11/05 02:17:40;;;;;;;14.80;5.40;;;10.10;81.00;;;;;;5013281;28;20257;-95
2022/11/05 02:20:38;;;;;;;28.23;8.70;;;10.10;81.70;;;;;;5024914;28;20220;-93
2022/11/05 02:23:49;;;;;;;15.17;6.13;;;10.10;81.70;;;;;;5017627;28;20221;-93
2022/11/05 02:27:07;;;;;;;8.40;4.13;;;10.10;81.60;;;;;;5015192;28;20308;-93
2022/11/05 02:30:20;;;;;;;12.13;4.70;;;10.10;81.70;;;;;;5013657;28;20201;-93
2022/11/05 02:33:11;;;;;;;7.83;3.80;;;10.20;81.60;;;;;;5018190;28;20228;-93
2022/11/05 02:36:27;;;;;;;11.73;4.80;;;10.10;81.50;;;;;;5016595;28;20984;-91
2022/11/05 02:39:07;;;;;;;15.53;5.80;;;10.20;81.80;;;;;;5015351;28;20630;-92
2022/11/05 02:41:46;;;;;;;20.23;7.27;;;10.10;81.60;;;;;;5013374;28;20263;-93
2022/11/05 02:44:24;;;;;;;14.80;5.63;;;10.20;81.90;;;;;;5013694;28;20229;-93
2022/11/05 02:47:05;;;;;;;15.73;5.40;;;10.10;82.00;;;;;;5015355;28;20212;-94
2022/11/05 02:49:47;;;;;;;12.87;4.50;;;10.10;82.50;;;;;;5012693;28;20682;-92
2022/11/05 02:52:21;;;;;;;15.10;6.30;;;10.10;82.40;;;;;;5015554;28;20225;-93
2022/11/05 02:54:57;;;;;;;20.40;6.90;;;10.10;82.10;;;;;;5011801;28;20228;-92
2022/11/05 02:57:24;;;;;;;20.57;6.53;;;10.10;82.50;;;;;;5009864;28;20240;-93
2022/11/05 03:00:02;;;;;;;20.43;6.87;;;10.10;82.20;;;;;;5010347;28;21263;-93
2022/11/05 03:02:32;;;;;;;18.33;6.33;;;10.10;83.10;;;;;;5012215;28;20622;-91
2022/11/05 03:05:04;;;;;;;13.30;5.00;;;10.10;83.00;;;;;;5012044;28;20265;-92
2022/11/05 03:07:41;;;;;;;17.60;5.80;;;10.20;83.50;;;;;;5011718;28;20227;-91
2022/11/05 03:10:35;;;;;;;12.87;5.33;;;10.10;83.80;;;;;;5007313;28;20287;-92
2022/11/05 03:13:14;;;;;;;13.80;4.93;;;10.10;84.20;;;;;;5010502;28;20247;-91
2022/11/05 03:15:53;;;;;;;18.60;6.23;;;10.20;84.40;;;;;;5004904;28;20232;-93
2022/11/05 03:18:26;;;;;;;18.57;5.83;;;10.20;84.20;;;;;;5011520;28;20198;-92
2022/11/05 03:21:05;;;;;;;10.20;4.43;;;10.20;83.90;;;;;;5014005;28;20287;-94
2022/11/05 03:23:39;;;;;;;17.23;6.00;;;10.30;84.30;;;;;;5010833;28;20233;-93
2022/11/05 03:26:18;;;;;;;22.23;6.73;;;10.30;84.40;;;;;;5010336;28;20936;-92
2022/11/05 03:28:51;;;;;;;12.53;4.83;;;10.30;84.40;;;;;;5008382;28;20263;-93
2022/11/05 03:31:21;;;;;;;13.30;4.57;;;10.40;84.90;;;;;;5013106;28;20288;-91
2022/11/05 03:33:53;;;;;;;15.90;5.67;;;10.40;85.10;;;;;;5009710;28;20742;-92
2022/11/05 03:36:27;;;;;;;13.50;5.30;;;10.40;85.50;;;;;;5010774;28;20200;-92
2022/11/05 03:39:01;;;;;;;20.27;6.30;;;10.40;85.60;;;;;;5006646;28;20268;-93
2022/11/05 03:41:32;;;;;;;15.13;5.27;;;10.50;85.80;;;;;;5009851;28;20216;-91
2022/11/05 03:44:06;;;;;;;18.30;6.00;;;10.50;85.50;;;;;;5015606;28;20182;-95
2022/11/05 03:46:46;;;;;;;10.77;4.33;;;10.50;85.60;;;;;;5014814;28;20632;-92
2022/11/05 03:49:21;;;;;;;18.57;6.30;;;10.60;86.00;;;;;;5014523;28;20231;-93
2022/11/05 03:51:58;;;;;;;15.10;5.50;;;10.60;85.70;;;;;;5005837;28;20221;-93
2022/11/05 03:54:32;;;;;;;15.93;5.47;;;10.70;85.70;;;;;;5008879;28;20554;-93
2022/11/05 03:57:06;;;;;;;15.93;5.07;;;10.70;85.20;;;;;;5011013;28;20664;-93
2022/11/05 03:59:41;;;;;;;10.67;3.93;;;10.80;85.80;;;;;;5013867;28;20217;-92
2022/11/05 04:02:12;;;;;;;14.43;5.33;;;10.80;85.80;;;;;;5014630;28;20530;-93
2022/11/05 04:04:41;;;;;;;13.50;4.40;;;10.80;85.80;;;;;;5013847;28;20197;-91
2022/11/05 04:15:29;;;;;;;25.47;6.60;;;10.90;85.10;;;;;;5008832;28;20232;-92
2022/11/05 04:17:57;;;;;;;20.03;6.83;;;11.00;85.40;;;;;;5013689;28;20217;-92
2022/11/05 04:26:04;;;;;;;15.87;5.97;;;11.00;85.20;;;;;;5003153;28;20201;-93
2022/11/05 04:31:13;;;;;;;12.03;4.87;;;11.00;84.30;;;;;;5013854;28;20228;-92
2022/11/05 04:33:40;;;;;;;15.73;5.67;;;11.00;84.00;;;;;;5010103;28;20723;-92
2022/11/05 04:36:08;;;;;;;22.53;6.83;;;11.00;83.80;;;;;;5008348;28;20271;-92
2022/11/05 04:38:39;;;;;;;16.00;6.30;;;11.00;83.80;;;;;;5026098;28;20213;-93
2022/11/05 04:41:18;;;;;;;15.63;5.53;;;11.10;84.00;;;;;;5030137;28;20195;-93
2022/11/05 04:43:51;;;;;;;11.83;4.43;;;11.10;84.30;;;;;;5017696;28;20197;-92
2022/11/05 04:46:20;;;;;;;11.03;4.70;;;11.00;83.70;;;;;;5013204;28;20193;-93
2022/11/05 04:48:50;;;;;;;15.17;5.40;;;11.00;83.20;;;;;;5011576;28;20211;-93
2022/11/05 04:51:17;;;;;;;16.23;5.77;;;11.00;83.30;;;;;;5010549;28;20230;-92
2022/11/05 04:53:49;;;;;;;17.97;6.03;;;11.00;83.10;;;;;;5011688;28;20238;-92
2022/11/05 04:56:20;;;;;;;17.60;5.77;;;11.00;83.30;;;;;;5013518;28;20259;-92
2022/11/05 04:58:47;;;;;;;17.07;5.87;;;11.00;83.50;;;;;;5011938;28;20275;-91
2022/11/05 05:01:18;;;;;;;9.27;4.17;;;11.00;83.00;;;;;;5020972;28;20205;-91
2022/11/05 05:03:49;;;;;;;19.87;6.60;;;11.00;83.40;;;;;;5011005;28;20212;-94
2022/11/05 05:06:26;;;;;;;18.63;5.93;;;10.90;83.20;;;;;;5012362;28;20195;-93
2022/11/05 05:08:56;;;;;;;19.33;5.93;;;10.90;83.20;;;;;;5011248;28;20198;-92
2022/11/05 05:11:23;;;;;;;19.00;6.20;;;10.90;83.10;;;;;;5013980;28;20221;-93
2022/11/05 05:13:55;;;;;;;13.70;5.30;;;10.90;82.80;;;;;;5014182;28;20285;-95
2022/11/05 05:16:26;;;;;;;14.57;5.33;;;10.90;83.30;;;;;;5014702;28;20232;-92
2022/11/05 05:18:56;;;;;;;17.17;6.20;;;10.90;83.10;;;;;;5009957;28;20205;-94
2022/11/05 05:21:42;;;;;;;17.33;5.60;;;10.90;83.00;;;;;;5009020;28;20209;-91
2022/11/05 05:24:14;;;;;;;16.37;5.57;;;10.90;83.20;;;;;;5012972;28;20180;-92
2022/11/05 05:26:43;;;;;;;18.60;6.13;;;10.80;82.80;;;;;;5014156;28;20241;-90
2022/11/05 05:29:12;;;;;;;20.17;6.30;;;10.80;82.60;;;;;;5012701;28;20197;-93
2022/11/05 05:31:43;;;;;;;12.17;5.20;;;10.80;82.70;;;;;;5018927;28;20264;-93
2022/11/05 05:34:22;;;;;;;25.27;6.70;;;10.80;82.60;;;;;;5005970;28;20252;-91
2022/11/05 05:36:52;;;;;;;14.77;4.97;;;10.80;82.80;;;;;;5015167;28;20205;-94
2022/11/05 05:39:20;;;;;;;12.93;4.83;;;10.80;82.50;;;;;;5015860;28;20214;-93
2022/11/05 05:41:48;;;;;;;9.40;4.53;;;10.70;82.30;;;;;;5018078;28;20237;-93
2022/11/05 05:44:16;;;;;;;15.67;5.87;;;10.70;82.30;;;;;;5012445;28;20198;-95
2022/11/05 05:46:44;;;;;;;13.83;5.40;;;10.70;82.30;;;;;;5010101;28;20659;-93
2022/11/05 05:49:12;;;;;;;15.67;5.80;;;10.70;82.30;;;;;;5014204;28;20352;-93
2022/11/05 05:51:42;;;;;;;11.83;4.63;;;10.60;82.30;;;;;;5012524;28;20652;-92
2022/11/05 05:54:14;;;;;;;17.10;6.77;;;10.60;82.40;;;;;;5014990;28;20204;-93
2022/11/05 05:56:51;;;;;;;14.67;5.83;;;10.60;82.50;;;;;;5014462;28;20248;-92
2022/11/05 05:59:18;;;;;;;13.97;5.50;;;10.60;83.00;;;;;;5009753;28;20271;-91
2022/11/05 06:01:48;;;;;;;12.80;5.10;;;10.60;82.70;;;;;;5013694;28;20652;-93
2022/11/05 06:04:18;;;;;;;20.03;6.83;;;10.50;82.90;;;;;;5011783;28;20234;-92
2022/11/05 06:06:47;;;;;;;16.43;6.17;;;10.50;83.00;;;;;;5017708;28;20240;-92
2022/11/05 06:09:16;;;;;;;15.70;6.50;;;10.50;83.10;;;;;;5016804;28;20204;-93
2022/11/05 06:11:45;;;;;;;19.00;6.23;;;10.40;83.20;;;;;;5008611;28;20232;-93
2022/11/05 06:14:18;;;;;;;14.80;5.77;;;10.40;83.70;;;;;;5015518;28;20736;-92
2022/11/05 06:16:46;;;;;;;14.47;5.00;;;10.40;84.10;;;;;;5014831;28;20216;-92
2022/11/05 06:19:14;;;;;;;19.40;6.97;;;10.40;84.00;;;;;;5014201;28;20197;-93
2022/11/05 06:21:42;;;;;;;19.77;6.63;;;10.40;84.20;;;;;;5012108;28;20288;-92
2022/11/05 06:24:10;;;;;;;16.10;5.70;;;10.40;84.00;;;;;;5015383;28;20235;-92
2022/11/05 06:26:43;;;;;;;13.83;5.37;;;10.40;84.10;;;;;;5007229;28;20706;-93
2022/11/05 06:29:14;;;;;;;17.73;5.90;;;10.40;84.40;;;;;;5002829;28;20309;-95
2022/11/05 06:31:42;;;;;;;13.43;4.97;;;10.40;84.40;;;;;;5012740;28;20243;-92
2022/11/05 06:34:12;;;;;;;13.83;5.67;;;10.40;84.50;;;;;;5015002;28;20198;-93
2022/11/05 06:39:26;;;;;;;22.27;7.80;;;10.40;84.50;;;;;;5012550;28;20690;-93
2022/11/05 06:41:54;;;;;;;12.97;5.30;;;10.40;84.20;;;;;;5014747;28;20668;-93
2022/11/05 06:44:31;;;;;;;16.90;5.93;;;10.40;84.50;;;;;;5013789;28;21056;-93
2022/11/05 06:46:59;;;;;;;10.27;4.97;;;10.40;84.80;;;;;;5001454;28;20201;-93
2022/11/05 06:49:27;;;;;;;20.27;7.17;;;10.30;84.30;;;;;;5013473;28;20748;-94
2022/11/05 06:51:57;;;;;;;21.37;7.50;;;10.30;84.40;;;;;;5005719;28;20234;-92
2022/11/05 06:54:26;;;;;;;15.67;5.70;;;10.30;84.70;;;;;;5007728;28;20216;-91
2022/11/05 06:56:57;;;;;;;14.33;5.60;;;10.40;84.80;;;;;;5011215;28;20197;-93
2022/11/05 06:59:25;;;;;;;14.67;5.83;;;10.30;85.00;;;;;;5013695;28;20214;-92
2022/11/05 07:01:54;;;;;;;11.10;5.30;;;10.40;84.70;;;;;;5018927;28;20198;-92
2022/11/05 07:04:24;;;;;;;14.53;5.97;;;10.40;84.90;;;;;;5020394;28;20201;-92
2022/11/05 07:06:55;;;;;;;13.87;5.17;;;10.40;85.00;;;;;;5017383;28;20201;-91
2022/11/05 07:09:25;;;;;;;16.07;6.20;;;10.40;85.10;;;;;;5017620;28;20209;-92
2022/11/05 07:11:55;;;;;;;14.53;5.87;;;10.40;85.40;;;;;;5015919;28;20225;-92
2022/11/05 07:14:23;;;;;;;13.23;5.70;;;10.40;85.40;;;;;;5015631;28;20287;-93
2022/11/05 07:16:51;;;;;;;11.33;5.13;;;10.40;85.40;;;;;;5014522;28;20221;-92
2022/11/05 07:19:22;;;;;;;10.27;5.30;;;10.40;85.60;;;;;;5016563;28;20233;-93
2022/11/05 07:21:51;;;;;;;18.97;6.47;;;10.40;85.40;;;;;;5013839;28;20213;-93
2022/11/05 07:24:23;;;;;;;14.50;5.70;;;10.50;85.50;;;;;;5016762;28;20265;-93
2022/11/05 07:26:52;;;;;;;16.13;6.63;;;10.50;85.50;;;;;;5015629;28;20245;-92
2022/11/05 07:29:24;;;;;;;16.27;6.57;;;10.50;85.60;;;;;;5015266;28;20205;-93
2022/11/05 07:31:56;;;;;;;14.77;5.50;;;10.50;85.40;;;;;;5015921;28;20207;-91
2022/11/05 07:34:25;;;;;;;13.80;5.93;;;10.60;85.60;;;;;;5013469;28;20194;-92
2022/11/05 07:36:52;;;;;;;13.60;6.73;;;10.60;85.60;;;;;;5015702;28;20232;-92
2022/11/05 07:39:19;;;;;;;12.10;5.57;;;10.60;85.40;;;;;;5010243;28;20219;-92
2022/11/05 07:41:47;;;;;;;11.43;5.40;;;10.70;85.50;;;;;;5015847;28;20492;-92
2022/11/05 07:44:16;;;;;;;26.50;8.90;;;10.70;85.60;;;;;;5005471;28;20302;-91
2022/11/05 07:46:43;;;;;;;18.30;6.77;;;10.70;85.40;;;;;;4997442;28;20225;-91
2022/11/05 07:51:47;;;;;;;32.57;9.77;;;10.80;85.50;;;;;;5026418;23;20255;-92
2022/11/05 07:54:14;;;;;;;19.43;7.23;;;10.80;85.70;;;;;;5009166;28;20304;-92
2022/11/05 07:56:43;;;;;;;18.67;6.70;;;10.90;85.40;;;;;;5009934;28;20286;-92
2022/11/05 07:59:10;;;;;;;16.47;6.33;;;10.90;85.20;;;;;;5005983;28;20283;-91
2022/11/05 08:01:37;;;;;;;17.17;6.57;;;10.90;85.00;;;;;;5008215;28;20259;-91
2022/11/05 08:04:04;;;;;;;30.50;9.10;;;11.00;85.10;;;;;;5005906;28;20637;-91
2022/11/05 08:06:32;;;;;;;18.10;6.03;;;11.00;85.20;;;;;;5008249;28;20304;-90
2022/11/05 08:09:00;;;;;;;18.10;6.83;;;11.00;85.20;;;;;;5008237;28;20256;-92
2022/11/05 08:11:27;;;;;;;19.40;7.37;;;11.10;85.40;;;;;;5007288;28;20320;-91
2022/11/05 08:13:54;;;;;;;14.00;5.67;;;11.10;85.20;;;;;;5008537;28;20220;-92
2022/11/05 08:16:21;;;;;;;17.87;6.63;;;11.20;85.30;;;;;;5009508;28;20752;-92
2022/11/05 08:18:48;;;;;;;16.97;6.30;;;11.20;85.30;;;;;;5008198;28;20209;-92
2022/11/05 08:21:15;;;;;;;22.47;7.67;;;11.20;85.40;;;;;;5007542;28;20291;-91
2022/11/05 08:23:42;;;;;;;12.70;5.57;;;11.20;85.30;;;;;;5007780;28;20216;-91
2022/11/05 08:26:11;;;;;;;23.23;7.47;;;11.30;85.40;;;;;;5012997;28;20272;-94
2022/11/05 08:28:38;;;;;;;15.50;5.13;;;11.30;85.30;;;;;;5017027;28;20288;-93
2022/11/05 08:31:05;;;;;;;18.80;6.67;;;11.30;85.50;;;;;;5013672;28;20217;-93
2022/11/05 08:33:33;;;;;;;18.60;6.23;;;11.40;85.60;;;;;;5011337;28;20287;-94
2022/11/05 08:36:03;;;;;;;15.00;5.17;;;11.40;86.40;;;;;;5011742;28;20264;-93
2022/11/05 08:38:33;;;;;;;10.13;4.57;;;11.50;85.70;;;;;;5015003;28;20270;-91
2022/11/05 08:41:02;;;;;;;13.63;5.67;;;11.50;85.60;;;;;;5013218;28;20205;-91
2022/11/05 08:43:47;;;;;;;21.43;7.13;;;11.60;85.70;;;;;;5009576;28;20197;-93
2022/11/05 08:46:14;;;;;;;16.13;5.63;;;11.60;85.60;;;;;;5011242;28;20282;-92
2022/11/05 08:48:41;;;;;;;15.50;5.83;;;11.70;85.20;;;;;;5013421;28;20253;-93
2022/11/05 08:51:10;;;;;;;20.83;7.40;;;11.70;85.10;;;;;;5015009;28;20285;-91
2022/11/05 08:53:37;;;;;;;16.30;6.13;;;11.70;85.20;;;;;;5013494;28;20320;-92
2022/11/05 08:56:06;;;;;;;17.10;6.17;;;11.80;85.20;;;;;;5012868;28;20313;-92
2022/11/05 08:58:33;;;;;;;8.97;4.33;;;11.80;85.20;;;;;;5017604;28;20209;-93
2022/11/05 09:01:04;;;;;;;15.60;6.00;;;11.80;85.10;;;;;;5009715;28;20198;-91
2022/11/05 09:03:36;;;;;;;14.70;6.07;;;11.90;85.20;;;;;;5007115;28;20196;-92
2022/11/05 09:06:07;;;;;;;15.33;6.27;;;11.90;85.10;;;;;;5015270;28;20208;-91
2022/11/05 09:08:34;;;;;;;16.67;6.93;;;12.00;85.10;;;;;;5014434;28;20206;-92
2022/11/05 09:11:04;;;;;;;17.50;6.73;;;12.00;85.00;;;;;;5009131;28;20501;-91
2022/11/05 09:13:31;;;;;;;17.10;6.70;;;12.00;84.90;;;;;;5018839;28;20320;-90
2022/11/05 09:15:59;;;;;;;11.67;5.37;;;12.10;85.00;;;;;;5022861;28;20208;-93
2022/11/05 09:18:32;;;;;;;15.77;6.27;;;12.20;84.80;;;;;;4995035;28;20722;-91
2022/11/05 09:20:58;;;;;;;11.43;4.97;;;12.20;84.70;;;;;;5013156;28;20204;-92
2022/11/05 09:23:26;;;;;;;13.27;5.87;;;12.30;84.40;;;;;;5024337;28;20208;-91
2022/11/05 09:25:54;;;;;;;11.27;5.03;;;12.30;84.50;;;;;;5014300;28;20308;-91
2022/11/05 09:28:23;;;;;;;12.73;4.83;;;12.40;84.70;;;;;;5013541;28;20270;-91
2022/11/05 09:30:53;;;;;;;13.43;5.70;;;12.40;84.70;;;;;;5003957;28;20218;-92
2022/11/05 09:33:24;;;;;;;14.43;5.80;;;12.50;84.50;;;;;;5008861;28;20273;-92
2022/11/05 09:35:53;;;;;;;14.10;6.07;;;12.50;84.30;;;;;;5008665;28;20201;-91
2022/11/05 09:38:20;;;;;;;15.07;5.77;;;12.60;84.40;;;;;;5006997;28;20293;-93
2022/11/05 09:40:55;;;;;;;19.40;6.80;;;12.60;84.30;;;;;;5006280;28;20233;-92
2022/11/05 09:43:27;;;;;;;12.77;4.90;;;12.70;84.00;;;;;;5007811;28;20237;-93
2022/11/05 09:45:58;;;;;;;13.73;5.73;;;12.70;83.60;;;;;;4998471;28;20239;-93
2022/11/05 09:48:30;;;;;;;22.20;7.67;;;12.70;83.20;;;;;;5007479;28;20284;-91
2022/11/05 09:50:59;;;;;;;13.00;5.30;;;12.80;83.30;;;;;;4996922;28;20203;-91
2022/11/05 09:53:27;;;;;;;14.70;6.20;;;12.80;83.10;;;;;;5008519;28;20260;-90
2022/11/05 09:55:57;;;;;;;18.13;6.60;;;12.80;83.10;;;;;;5003340;28;20203;-92
2022/11/05 09:58:36;;;;;;;14.70;6.07;;;12.90;83.40;;;;;;5006065;28;20299;-92
2022/11/05 10:01:04;;;;;;;12.13;5.67;;;12.90;84.50;;;;;;5005321;28;20320;-93
2022/11/05 10:03:34;;;;;;;16.40;5.67;;;13.00;83.60;;;;;;5007534;28;20234;-91
2022/11/05 10:06:08;;;;;;;11.93;4.87;;;13.00;83.60;;;;;;4999203;28;20210;-91
2022/11/05 10:08:42;;;;;;;11.93;4.83;;;13.00;83.30;;;;;;5004463;28;20618;-91
2022/11/05 10:11:14;;;;;;;13.80;6.30;;;13.10;83.10;;;;;;4996131;28;20235;-91
2022/11/05 10:13:44;;;;;;;18.00;6.47;;;13.10;83.00;;;;;;5006071;28;20317;-91
2022/11/05 10:16:22;;;;;;;13.83;5.20;;;13.10;83.10;;;;;;5008044;28;20210;-91
2022/11/05 10:18:54;;;;;;;10.20;4.93;;;13.10;82.70;;;;;;5015292;28;20206;-92
2022/11/05 10:21:23;;;;;;;10.93;4.80;;;13.10;82.40;;;;;;5021430;28;20227;-90
2022/11/05 10:23:51;;;;;;;12.60;5.47;;;13.20;82.40;;;;;;5014117;28;20338;-91
2022/11/05 10:26:25;;;;;;;12.70;5.27;;;13.20;82.70;;;;;;5001964;28;20333;-91
2022/11/05 10:28:53;;;;;;;15.87;6.07;;;13.20;82.20;;;;;;5006623;28;20237;-91
2022/11/05 10:31:22;;;;;;;16.00;5.77;;;13.20;82.30;;;;;;5006797;28;20236;-91
2022/11/05 10:33:58;;;;;;;18.30;6.90;;;13.30;82.60;;;;;;5005361;28;20231;-92
2022/11/05 10:36:30;;;;;;;14.03;6.07;;;13.30;82.80;;;;;;5000460;28;20655;-91
2022/11/05 10:39:02;;;;;;;17.07;6.60;;;13.30;82.70;;;;;;5006912;28;20209;-91
2022/11/05 10:41:44;;;;;;;14.40;6.07;;;13.40;82.70;;;;;;5005659;28;20201;-92
2022/11/05 10:44:22;;;;;;;16.53;6.57;;;13.40;83.20;;;;;;4988097;28;20314;-92
2022/11/05 10:46:58;;;;;;;20.50;7.77;;;13.50;83.30;;;;;;4998604;28;20310;-90
2022/11/05 10:49:43;;;;;;;15.73;6.70;;;13.50;82.80;;;;;;5007086;28;21359;-92
2022/11/05 10:52:23;;;;;;;16.00;6.43;;;13.50;83.00;;;;;;4998118;28;20266;-91
2022/11/05 10:54:55;;;;;;;23.30;8.03;;;13.60;82.80;;;;;;5007129;28;20266;-92
2022/11/05 10:57:34;;;;;;;15.57;6.20;;;13.70;82.50;;;;;;5005490;28;20722;-91
2022/11/05 11:00:21;;;;;;;20.33;7.60;;;13.70;82.40;;;;;;5003367;28;20854;-91
2022/11/05 11:02:50;;;;;;;20.57;7.77;;;13.80;82.10;;;;;;5005076;28;20262;-93
2022/11/05 11:05:23;;;;;;;13.57;5.87;;;13.80;82.00;;;;;;5007793;28;20238;-93
2022/11/05 11:08:03;;;;;;;15.93;5.67;;;13.90;81.30;;;;;;5004218;28;20288;-92
2022/11/05 11:10:34;;;;;;;20.47;7.50;;;13.90;81.30;;;;;;5005853;28;20656;-92
2022/11/05 11:13:05;;;;;;;11.87;5.50;;;14.00;81.40;;;;;;5005923;28;20600;-91
2022/11/05 11:15:33;;;;;;;17.87;7.03;;;14.00;80.90;;;;;;5006187;28;20208;-91
2022/11/05 11:18:26;;;;;;;13.80;5.70;;;14.00;80.40;;;;;;5017708;28;20210;-91
2022/11/05 11:20:53;;;;;;;12.37;5.47;;;14.00;80.30;;;;;;4991405;28;20321;-91
2022/11/05 11:23:24;;;;;;;15.67;5.90;;;14.00;80.50;;;;;;5005270;28;20211;-92
2022/11/05 11:25:53;;;;;;;13.33;5.23;;;14.00;80.00;;;;;;5006280;28;20239;-91
2022/11/05 11:28:31;;;;;;;9.50;5.47;;;14.00;80.20;;;;;;5016786;28;20205;-91
2022/11/05 11:31:05;;;;;;;15.50;6.13;;;14.10;80.00;;;;;;5018612;28;20208;-93
2022/11/05 11:33:35;;;;;;;10.60;5.30;;;14.10;79.70;;;;;;5017879;28;20296;-92
2022/11/05 11:36:02;;;;;;;13.20;5.33;;;14.10;79.90;;;;;;5005328;28;20209;-92
2022/11/05 11:38:35;;;;;;;13.17;5.80;;;14.00;80.10;;;;;;5013180;28;20728;-93
2022/11/05 11:41:17;;;;;;;12.57;6.03;;;14.10;80.30;;;;;;5004722;28;20198;-92
2022/11/05 11:43:45;;;;;;;17.80;7.03;;;14.10;80.30;;;;;;4996455;28;20213;-92
2022/11/05 11:46:16;;;;;;;13.73;6.30;;;14.20;80.50;;;;;;5001106;28;20219;-91
2022/11/05 11:48:46;;;;;;;16.30;6.97;;;14.20;80.70;;;;;;5005697;28;20209;-92
2022/11/05 11:51:20;;;;;;;22.13;8.30;;;14.20;80.30;;;;;;5001549;28;20204;-91
2022/11/05 11:53:50;;;;;;;12.57;5.70;;;14.20;80.30;;;;;;5003270;28;20240;-91
2022/11/05 11:56:19;;;;;;;12.67;5.90;;;14.20;80.10;;;;;;5007637;28;20206;-91
2022/11/05 11:58:48;;;;;;;19.80;7.73;;;14.20;79.90;;;;;;5003922;28;20667;-92
2022/11/05 12:01:47;;;;;;;12.77;5.47;;;14.20;80.10;;;;;;5003140;28;20581;-93
2022/11/05 12:04:31;;;;;;;12.63;5.67;;;14.20;80.10;;;;;;5023895;28;20210;-92
2022/11/05 12:07:15;;;;;;;15.70;6.47;;;14.30;80.30;;;;;;5005609;28;20297;-92
2022/11/05 12:10:11;;;;;;;20.43;7.53;;;14.30;80.40;;;;;;5004019;28;20660;-92
2022/11/05 12:12:49;;;;;;;11.67;5.60;;;14.30;80.20;;;;;;4989863;28;20263;-92
2022/11/05 12:15:31;;;;;;;16.73;6.63;;;14.30;80.10;;;;;;5005109;28;20208;-94
2022/11/05 12:18:01;;;;;;;14.77;5.90;;;14.30;80.10;;;;;;5006002;28;20212;-91
2022/11/05 12:20:38;;;;;;;18.00;6.87;;;14.30;80.20;;;;;;5007514;28;20258;-91
2022/11/05 12:23:34;;;;;;;11.20;4.97;;;14.40;81.20;;;;;;5007301;28;20249;-92
2022/11/05 12:26:12;;;;;;;15.63;5.93;;;14.40;80.40;;;;;;5001987;28;20339;-91
2022/11/05 12:29:17;;;;;;;11.87;5.27;;;14.40;80.60;;;;;;5005476;28;20713;-93
2022/11/05 12:31:59;;;;;;;12.83;5.77;;;14.40;80.50;;;;;;5004838;28;20211;-91
2022/11/05 12:34:42;;;;;;;25.53;7.77;;;14.50;80.80;;;;;;5006406;28;20782;-92
2022/11/05 12:37:21;;;;;;;11.40;5.17;;;14.50;80.90;;;;;;5008162;28;20287;-93
2022/11/05 12:40:11;;;;;;;12.63;6.67;;;14.50;80.90;;;;;;5008376;28;20377;-93
2022/11/05 12:42:52;;;;;;;17.03;6.87;;;14.60;80.60;;;;;;5014666;28;20758;-92
2022/11/05 12:45:34;;;;;;;16.43;5.67;;;14.60;80.60;;;;;;5007359;28;20843;-92
2022/11/05 12:48:32;;;;;;;15.63;5.87;;;14.60;80.80;;;;;;5005426;28;20290;-91
2022/11/05 12:51:10;;;;;;;13.97;6.40;;;14.60;81.00;;;;;;4997016;28;20214;-91
2022/11/05 12:54:01;;;;;;;16.43;6.33;;;14.60;80.60;;;;;;5012088;28;20269;-92
2022/11/05 12:56:37;;;;;;;13.87;6.23;;;14.60;80.50;;;;;;5014442;28;20648;-93
2022/11/05 12:59:17;;;;;;;12.77;6.67;;;14.70;80.70;;;;;;5028348;28;20239;-91
2022/11/05 13:01:50;;;;;;;9.73;5.10;;;14.70;80.90;;;;;;5031578;28;20222;-94
2022/11/05 13:07:38;;;;;;;16.47;5.87;;;14.70;80.60;;;;;;5030481;28;20268;-93
2022/11/05 13:10:18;;;;;;;10.90;5.47;;;14.70;80.60;;;;;;5028041;28;20204;-93
2022/11/05 13:13:05;;;;;;;17.43;7.20;;;14.80;81.00;;;;;;5019324;28;20212;-94
2022/11/05 13:15:53;;;;;;;21.20;7.40;;;14.80;80.80;;;;;;5017103;28;20239;-92
2022/11/05 13:18:30;;;;;;;17.57;7.03;;;14.80;80.70;;;;;;5006924;28;20552;-93
2022/11/05 13:21:02;;;;;;;11.63;5.53;;;14.80;80.70;;;;;;5009070;28;20212;-92
2022/11/05 13:23:35;;;;;;;12.07;5.80;;;14.90;80.60;;;;;;5006003;28;20210;-93
2022/11/05 13:26:11;;;;;;;14.27;6.13;;;14.90;80.40;;;;;;5008278;28;20251;-93
2022/11/05 13:28:55;;;;;;;14.60;6.60;;;14.90;80.50;;;;;;4997897;28;20208;-91
2022/11/05 13:31:32;;;;;;;14.27;6.07;;;14.90;80.60;;;;;;5004283;28;20275;-92
2022/11/05 13:34:04;;;;;;;14.17;6.40;;;15.00;81.50;;;;;;5004869;28;20883;-92
2022/11/05 13:39:26;;;;;;;11.77;5.23;;;14.90;80.50;;;;;;5018321;28;20204;-91
2022/11/05 13:42:35;;;;;;;12.90;5.07;;;15.00;80.70;;;;;;5016152;28;20660;-90
2022/11/05 13:45:41;;;;;;;16.20;6.10;;;15.00;81.00;;;;;;4992898;28;20236;-92
2022/11/05 13:48:45;;;;;;;16.93;6.67;;;15.00;80.70;;;;;;5008608;28;20236;-92
2022/11/05 13:51:56;;;;;;;18.03;6.93;;;15.00;80.70;;;;;;4987024;28;20303;-92
2022/11/05 13:55:11;;;;;;;17.77;6.77;;;15.00;80.80;;;;;;4998742;28;20230;-92
2022/11/05 13:58:10;;;;;;;17.57;6.87;;;15.00;81.20;;;;;;4992347;28;20206;-93
2022/11/05 14:00:42;;;;;;;12.13;5.00;;;15.00;81.20;;;;;;5007626;28;20596;-91
2022/11/05 14:03:19;;;;;;;15.93;5.73;;;15.00;81.10;;;;;;5006603;28;20217;-92